Time;durP1;ratioP1;P1;durP2;ratioP2;P2;SDS_P1;SDS_P2;PMS_P1;PMS_P2;Temp;Humidity;BMP_temperature;BMP_pressure;BME280_temperature;BME280_humidity;BME280_pressure;Samples;Min_cycle;Max_cycle;Signal;HPM_P1;HPM_P2
2022/05/26 00:01:30;;;;;;;8.80;2.90;;;;;;;11.92;78.80;100237.23;105199;1284;22582;-72
2022/05/26 00:03:57;;;;;;;2.60;2.30;;;;;;;11.90;78.85;100236.21;104923;1284;24242;-72
2022/05/26 00:06:25;;;;;;;2.10;2.00;;;;;;;11.90;78.66;100236.40;104891;1284;25361;-71
2022/05/26 00:08:52;;;;;;;2.60;2.30;;;;;;;11.84;78.36;100229.27;104986;1284;22548;-72
2022/05/26 00:11:29;;;;;;;2.10;1.90;;;;;;;11.87;78.39;100230.80;105005;1285;25369;-73
2022/05/26 00:13:56;;;;;;;3.00;2.10;;;;;;;11.84;78.22;100236.15;105095;1284;22614;-72
2022/05/26 00:16:24;;;;;;;4.00;2.10;;;;;;;11.82;78.21;100239.02;105287;1284;22545;-72
2022/05/26 00:18:51;;;;;;;2.10;1.90;;;;;;;11.78;78.17;100238.73;105142;1284;23111;-72
2022/05/26 00:21:18;;;;;;;2.30;2.00;;;;;;;11.74;78.16;100234.02;105170;1284;25633;-72
2022/05/26 00:23:46;;;;;;;2.80;2.30;;;;;;;11.73;78.14;100237.38;104993;1284;25309;-71
2022/05/26 00:26:14;;;;;;;2.50;2.30;;;;;;;11.72;78.30;100236.52;105188;1282;22710;-73
2022/05/26 00:28:41;;;;;;;2.70;2.20;;;;;;;11.71;78.28;100239.55;105310;1284;22572;-71
2022/05/26 00:31:08;;;;;;;3.70;2.10;;;;;;;11.63;78.19;100240.73;104763;1285;24047;-73
2022/05/26 00:33:34;;;;;;;2.60;2.00;;;;;;;11.54;78.45;100245.79;104565;1290;22831;-73
2022/05/26 00:36:04;;;;;;;3.10;2.30;;;;;;;11.47;78.47;100244.33;104447;1288;24269;-74
2022/05/26 00:38:31;;;;;;;4.00;2.60;;;;;;;11.41;78.79;100242.13;104465;1288;24339;-72
2022/05/26 00:41:03;;;;;;;3.20;2.70;;;;;;;11.36;79.05;100238.30;104453;1288;22670;-74
2022/05/26 00:43:30;;;;;;;3.00;2.50;;;;;;;11.34;79.06;100243.28;104489;1288;25423;-73
2022/05/26 00:46:09;;;;;;;2.70;2.20;;;;;;;11.27;79.12;100241.26;104645;1288;24108;-73
2022/05/26 00:48:55;;;;;;;3.30;3.00;;;;;;;11.19;79.28;100240.67;104648;1288;22852;-73
2022/05/26 00:51:30;;;;;;;2.90;2.70;;;;;;;11.17;79.64;100243.15;104706;1285;22888;-71
2022/05/26 00:54:02;;;;;;;3.20;2.80;;;;;;;11.16;79.79;100238.77;105154;1284;22644;-70
2022/05/26 00:56:51;;;;;;;3.20;2.70;;;;;;;11.12;79.79;100239.73;105216;1284;25333;-72
2022/05/26 00:59:26;;;;;;;3.30;2.60;;;;;;;11.08;79.91;100245.73;105194;1284;24285;-72
2022/05/26 01:01:56;;;;;;;3.40;2.80;;;;;;;11.04;80.03;100250.20;105237;1284;24228;-72
2022/05/26 01:04:27;;;;;;;4.30;3.00;;;;;;;11.01;80.10;100245.48;105261;1284;24251;-73
2022/05/26 01:07:14;;;;;;;3.40;3.10;;;;;;;11.01;80.23;100253.95;105257;1284;25445;-75
2022/05/26 01:09:41;;;;;;;2.60;2.40;;;;;;;10.99;80.31;100250.09;105063;1284;25222;-74
2022/05/26 01:12:09;;;;;;;3.60;3.10;;;;;;;10.93;80.48;100248.23;105003;1284;22577;-74
2022/05/26 01:14:46;;;;;;;4.00;3.50;;;;;;;10.94;80.59;100242.77;105263;1284;24254;-75
2022/05/26 01:17:37;;;;;;;6.00;3.90;;;;;;;10.96;80.87;100246.61;105199;1284;23019;-73
2022/05/26 01:20:13;;;;;;;5.40;3.60;;;;;;;11.00;80.84;100242.69;105110;1284;22541;-77
2022/05/26 01:22:55;;;;;;;3.40;3.00;;;;;;;10.98;80.69;100245.89;105180;1285;22567;-74
2022/05/26 01:25:53;;;;;;;3.10;2.70;;;;;;;10.95;80.69;100243.80;105316;1284;24037;-75
2022/05/26 01:28:44;;;;;;;3.30;3.00;;;;;;;10.94;80.82;100239.43;105317;1284;22953;-74
2022/05/26 01:31:11;;;;;;;3.20;3.00;;;;;;;10.91;80.97;100240.53;105287;1284;26496;-72
2022/05/26 01:34:04;;;;;;;3.40;3.10;;;;;;;10.87;80.97;100239.16;104516;1290;25671;-76
2022/05/26 01:37:00;;;;;;;5.50;3.40;;;;;;;10.88;81.08;100248.47;104189;1290;22577;-76
2022/05/26 01:39:39;;;;;;;4.80;3.00;;;;;;;10.89;81.15;100247.23;104385;1290;24331;-74
2022/05/26 01:42:10;;;;;;;3.60;3.20;;;;;;;10.85;81.15;100248.33;104401;1290;25358;-73
2022/05/26 01:44:53;;;;;;;3.00;2.70;;;;;;;10.84;81.29;100247.98;104512;1291;22650;-74
2022/05/26 01:47:36;;;;;;;3.90;3.30;;;;;;;10.84;81.43;100250.63;104618;1290;23043;-75
2022/05/26 01:50:22;;;;;;;4.20;3.30;;;;;;;10.86;81.47;100246.55;104430;1291;22778;-75
2022/05/26 01:53:11;;;;;;;3.50;3.20;;;;;;;10.88;81.34;100250.59;105086;1284;22559;-76
2022/05/26 01:56:21;;;;;;;3.10;2.80;;;;;;;10.84;81.28;100247.13;105279;1284;22541;-77
2022/05/26 01:58:58;;;;;;;3.10;2.80;;;;;;;10.85;81.42;100244.46;104624;1291;25306;-74
2022/05/26 02:01:30;;;;;;;3.40;3.10;;;;;;;10.83;81.28;100243.96;104736;1290;24246;-74
2022/05/26 02:03:58;;;;;;;4.40;3.00;;;;;;;10.81;81.41;100242.40;104573;1290;22761;-72
2022/05/26 02:06:30;;;;;;;3.80;3.50;;;;;;;10.74;81.54;100242.66;104633;1291;25267;-71
2022/05/26 02:09:13;;;;;;;3.90;2.60;;;;;;;10.71;81.79;100245.69;104745;1290;23839;-72
2022/05/26 02:11:52;;;;;;;3.40;3.10;;;;;;;10.71;81.73;100242.70;104372;1291;23690;-73
2022/05/26 02:14:31;;;;;;;3.30;3.10;;;;;;;10.69;81.88;100239.55;104696;1290;22542;-73
2022/05/26 02:17:06;;;;;;;4.10;2.70;;;;;;;10.75;81.88;100246.52;104889;1284;25324;-72
2022/05/26 02:19:39;;;;;;;5.20;3.20;;;;;;;10.75;81.72;100249.16;104780;1288;22733;-73
2022/05/26 02:22:28;;;;;;;4.80;3.10;;;;;;;10.75;81.57;100248.64;104607;1288;24282;-73
2022/05/26 02:25:00;;;;;;;3.00;2.70;;;;;;;10.72;81.75;100250.09;104657;1288;22585;-73
2022/05/26 02:27:29;;;;;;;3.20;2.80;;;;;;;10.68;81.71;100252.43;104749;1288;22553;-75
2022/05/26 02:29:59;;;;;;;3.00;2.80;;;;;;;10.63;81.89;100253.00;104811;1288;25366;-72
2022/05/26 02:32:47;;;;;;;3.00;2.80;;;;;;;10.63;81.98;100259.16;104837;1287;25272;-76
2022/05/26 02:35:24;;;;;;;2.90;2.50;;;;;;;10.63;81.78;100260.04;104913;1288;25222;-74
2022/05/26 02:37:57;;;;;;;3.30;2.50;;;;;;;10.58;81.73;100256.38;105047;1284;26637;-77
2022/05/26 02:40:25;;;;;;;2.50;2.30;;;;;;;10.56;81.83;100252.90;105180;1284;22727;-75
2022/05/26 02:42:57;;;;;;;4.10;2.60;;;;;;;10.58;81.95;100250.08;105312;1285;22531;-75
2022/05/26 02:45:42;;;;;;;3.00;2.80;;;;;;;10.62;82.07;100253.70;105326;1284;24342;-78
2022/05/26 02:48:24;;;;;;;5.10;2.90;;;;;;;10.64;81.86;100253.68;105329;1284;24289;-75
2022/05/26 02:51:20;;;;;;;4.10;3.30;;;;;;;10.60;81.79;100257.98;105415;1284;22884;-76
2022/05/26 02:54:26;;;;;;;3.00;2.70;;;;;;;10.58;82.01;100254.29;105269;1284;22549;-76
2022/05/26 02:57:05;;;;;;;2.60;2.40;;;;;;;10.63;81.99;100250.71;105246;1284;25260;-74
2022/05/26 03:00:10;;;;;;;3.00;2.70;;;;;;;10.68;81.87;100250.48;105382;1284;25317;-76
2022/05/26 03:02:46;;;;;;;3.50;3.20;;;;;;;10.70;81.76;100251.87;105476;1284;25312;-76
2022/05/26 03:05:19;;;;;;;4.60;3.40;;;;;;;10.69;81.74;100251.36;105069;1285;22707;-74
2022/05/26 03:07:52;;;;;;;4.00;2.70;;;;;;;10.67;81.66;100248.91;105077;1284;24257;-76
2022/05/26 03:10:25;;;;;;;2.70;2.40;;;;;;;10.67;81.55;100249.42;105157;1285;22733;-74
2022/05/26 03:12:59;;;;;;;3.60;2.60;;;;;;;10.62;81.52;100249.67;105267;1284;26534;-75
2022/05/26 03:15:29;;;;;;;2.80;2.60;;;;;;;10.62;81.54;100247.38;104641;1288;22635;-79
2022/05/26 03:17:57;;;;;;;3.10;1.90;;;;;;;10.60;81.66;100250.75;104500;1288;25555;-78
2022/05/26 03:20:24;;;;;;;2.50;2.30;;;;;;;10.57;81.48;100248.48;104711;1288;25436;-77
2022/05/26 03:22:51;;;;;;;2.40;2.20;;;;;;;10.53;81.61;100245.71;104680;1288;24262;-74
2022/05/26 03:25:18;;;;;;;3.50;2.70;;;;;;;10.54;81.72;100249.05;104412;1288;23987;-83
2022/05/26 03:27:45;;;;;;;3.30;2.60;;;;;;;10.59;81.77;100248.46;104399;1291;24252;-78
2022/05/26 03:30:13;;;;;;;3.00;2.80;;;;;;;10.63;81.65;100252.48;104850;1288;26538;-78
2022/05/26 03:32:41;;;;;;;4.30;2.80;;;;;;;10.63;81.49;100252.83;104615;1288;22862;-75
2022/05/26 03:40:57;;;;;;;3.90;3.00;;;;;;;10.67;81.59;100251.03;104391;1291;22541;-75
2022/05/26 03:43:32;;;;;;;3.80;3.30;;;;;;;10.65;81.53;100252.27;104587;1290;27062;-74
2022/05/26 03:46:01;;;;;;;3.60;3.20;;;;;;;10.63;81.79;100253.70;104574;1290;24320;-76
2022/05/26 03:48:29;;;;;;;7.00;4.00;;;;;;;10.64;82.07;100254.75;104510;1291;25846;-76
2022/05/26 03:50:56;;;;;;;4.70;4.30;;;;;;;10.71;82.27;100256.79;104505;1290;24241;-79
2022/05/26 03:53:23;;;;;;;4.20;3.80;;;;;;;10.75;82.18;100263.61;103976;1291;22564;-75
2022/05/26 03:55:50;;;;;;;5.10;3.70;;;;;;;10.78;82.26;100265.68;104568;1284;24256;-78
2022/05/26 03:58:17;;;;;;;5.00;4.50;;;;;;;10.78;82.58;100266.57;105150;1284;24698;-74
2022/05/26 04:00:44;;;;;;;4.90;4.40;;;;;;;10.83;82.70;100266.50;105163;1284;25295;-74
2022/05/26 04:03:12;;;;;;;4.60;4.30;;;;;;;10.89;82.74;100267.14;105092;1284;24337;-72
2022/05/26 04:05:39;;;;;;;5.60;4.90;;;;;;;10.95;82.82;100259.85;104965;1285;24655;-73
2022/05/26 04:08:06;;;;;;;6.00;5.50;;;;;;;10.97;82.88;100258.95;105132;1284;22718;-75
2022/05/26 04:10:34;;;;;;;5.70;5.10;;;;;;;10.99;82.93;100262.78;105182;1285;24314;-80
2022/05/26 04:13:01;;;;;;;5.80;5.30;;;;;;;11.02;83.00;100259.75;105094;1285;22569;-81
2022/05/26 04:15:27;;;;;;;4.90;4.40;;;;;;;11.07;83.15;100260.55;105127;1284;25327;-75
2022/05/26 04:17:55;;;;;;;5.40;4.90;;;;;;;11.13;83.21;100254.14;105025;1284;24327;-74
2022/05/26 04:20:23;;;;;;;5.80;5.30;;;;;;;11.19;83.34;100261.48;104952;1284;22569;-72
2022/05/26 04:22:50;;;;;;;5.70;5.10;;;;;;;11.18;83.36;100256.38;105049;1285;22570;-81
2022/05/26 04:25:20;;;;;;;5.00;4.50;;;;;;;11.25;83.24;100262.42;104939;1285;23177;-85
2022/05/26 04:27:47;;;;;;;7.10;5.90;;;;;;;11.29;83.24;100260.45;105145;1284;22576;-82
2022/05/26 04:30:15;;;;;;;6.90;6.20;;;;;;;11.32;83.33;100262.18;105285;1284;22876;-82
2022/05/26 04:32:42;;;;;;;5.90;4.50;;;;;;;11.37;83.32;100259.45;105269;1284;22551;-82
2022/05/26 04:35:09;;;;;;;6.60;5.80;;;;;;;11.40;83.30;100259.42;105270;1284;24751;-82
2022/05/26 04:37:37;;;;;;;7.00;5.60;;;;;;;11.43;83.51;100262.01;105179;1284;22589;-82
2022/05/26 04:40:07;;;;;;;8.30;6.30;;;;;;;11.48;83.39;100260.00;105459;1285;22640;-83
2022/05/26 04:42:35;;;;;;;6.80;6.20;;;;;;;11.53;83.44;100261.51;105359;1286;25317;-81
2022/05/26 04:45:04;;;;;;;7.10;6.40;;;;;;;11.58;83.62;100260.20;105705;1284;22648;-81
2022/05/26 04:47:31;;;;;;;7.10;5.70;;;;;;;11.65;83.55;100257.98;105432;1285;22483;-81
2022/05/26 04:49:58;;;;;;;6.60;6.00;;;;;;;11.71;83.52;100253.83;106304;1284;22578;-77
2022/05/26 04:52:25;;;;;;;7.10;6.00;;;;;;;11.78;83.53;100253.91;106102;1284;25607;-80
2022/05/26 04:54:52;;;;;;;9.40;6.70;;;;;;;11.85;83.46;100257.48;105656;1284;25330;-81
2022/05/26 04:57:22;;;;;;;7.50;6.90;;;;;;;11.89;83.35;100258.83;105948;1285;22548;-80
2022/05/26 04:59:50;;;;;;;6.60;6.00;;;;;;;11.93;83.36;100256.12;106261;1284;22543;-78
2022/05/26 05:02:21;;;;;;;7.90;7.20;;;;;;;11.97;83.35;100253.23;106811;1284;26643;-77
2022/05/26 05:04:49;;;;;;;8.30;7.50;;;;;;;12.01;83.55;100254.05;106985;1284;22549;-78
2022/05/26 05:07:17;;;;;;;8.30;7.50;;;;;;;12.06;83.56;100252.90;105992;1284;22573;-79
2022/05/26 05:09:46;;;;;;;9.50;8.60;;;;;;;12.12;83.63;100255.27;105617;1284;22506;-80
2022/05/26 05:12:21;;;;;;;8.30;7.50;;;;;;;12.18;83.58;100257.51;107111;1284;24425;-87
2022/05/26 05:14:52;;;;;;;8.40;7.60;;;;;;;12.25;83.49;100255.95;107907;1284;25370;-87
2022/05/26 05:17:21;;;;;;;9.10;8.10;;;;;;;12.34;83.41;100261.96;105656;1288;22566;-72
2022/05/26 05:19:50;;;;;;;10.30;8.00;;;;;;;12.41;83.16;100262.38;104570;1294;25374;-80
2022/05/26 05:22:34;;;;;;;11.00;8.60;;;;;;;12.46;83.08;100267.92;104392;1294;25489;-81
2022/05/26 05:25:25;;;;;;;9.10;8.20;;;;;;;12.51;83.00;100268.17;104246;1294;25285;-80
2022/05/26 05:27:58;;;;;;;10.90;7.60;;;;;;;12.58;82.94;100270.00;104330;1294;22565;-80
2022/05/26 05:30:48;;;;;;;8.80;8.00;;;;;;;12.65;82.88;100264.39;104358;1296;25270;-80
2022/05/26 05:33:56;;;;;;;7.70;7.00;;;;;;;12.72;82.79;100266.55;104182;1294;25380;-80
2022/05/26 05:36:33;;;;;;;8.80;8.00;;;;;;;12.81;82.76;100271.48;104086;1291;22541;-86
2022/05/26 05:39:02;;;;;;;8.70;7.90;;;;;;;12.87;82.53;100279.84;105107;1284;24231;-84
2022/05/26 05:41:32;;;;;;;9.70;8.70;;;;;;;12.92;82.17;100274.81;105391;1284;22780;-82
2022/05/26 05:44:01;;;;;;;10.90;9.10;;;;;;;12.99;82.32;100274.48;105161;1285;24243;-86
2022/05/26 05:46:34;;;;;;;8.90;8.00;;;;;;;13.06;82.21;100270.80;105380;1284;22560;-85
2022/05/26 05:49:04;;;;;;;9.10;7.70;;;;;;;13.14;81.76;100267.27;105327;1285;22541;-84
2022/05/26 05:51:32;;;;;;;9.20;7.60;;;;;;;13.25;81.55;100258.73;105233;1285;25446;-84
2022/05/26 05:53:59;;;;;;;7.60;6.50;;;;;;;13.38;81.11;100261.98;105358;1284;22702;-83
2022/05/26 05:56:26;;;;;;;9.00;8.10;;;;;;;13.47;80.47;100259.65;105177;1285;22863;-84
2022/05/26 05:58:55;;;;;;;6.90;6.20;;;;;;;13.54;80.42;100263.77;105114;1285;22548;-85
2022/05/26 06:01:22;;;;;;;9.30;8.40;;;;;;;13.59;80.11;100272.84;105277;1284;24239;-85
2022/05/26 06:03:49;;;;;;;9.20;8.20;;;;;;;13.66;79.73;100277.29;105228;1286;22699;-84
2022/05/26 06:06:17;;;;;;;7.70;6.90;;;;;;;13.72;79.71;100274.86;105799;1284;22576;-85
2022/05/26 06:08:44;;;;;;;8.70;7.80;;;;;;;13.78;79.53;100277.35;105766;1285;25269;-86
2022/05/26 06:11:11;;;;;;;8.40;7.50;;;;;;;13.81;78.97;100267.18;105293;1285;25385;-85
2022/05/26 06:13:38;;;;;;;7.70;6.90;;;;;;;13.84;79.01;100262.70;105457;1284;22553;-85
2022/05/26 06:16:05;;;;;;;8.10;7.20;;;;;;;13.98;78.76;100264.66;104924;1284;22552;-83
2022/05/26 06:18:32;;;;;;;6.70;5.90;;;;;;;14.06;78.40;100267.81;105250;1284;24538;-83
2022/05/26 06:21:06;;;;;;;8.50;6.90;;;;;;;14.10;77.77;100267.86;105088;1284;25218;-84
2022/05/26 06:23:33;;;;;;;6.70;6.00;;;;;;;14.15;77.41;100265.48;105272;1284;22760;-83
2022/05/26 06:26:01;;;;;;;8.40;6.80;;;;;;;14.20;77.17;100267.80;105328;1284;25346;-86
2022/05/26 06:31:13;;;;;;;8.80;6.10;;;;;;;14.33;76.49;100261.61;105272;1285;23066;-85
2022/05/26 06:39:11;;;;;;;6.10;5.20;;;;;;;14.46;74.85;100261.09;105184;1284;24214;-87
2022/05/26 06:44:24;;;;;;;7.50;5.30;;;;;;;14.57;74.08;100257.27;105290;1284;23975;-84
2022/05/26 06:46:51;;;;;;;6.20;5.60;;;;;;;14.60;73.64;100253.10;105216;1284;24291;-83
2022/05/26 06:49:18;;;;;;;6.20;5.50;;;;;;;14.64;73.70;100249.27;105426;1284;22544;-83
2022/05/26 06:51:48;;;;;;;5.50;4.60;;;;;;;14.68;73.66;100251.46;105407;1284;22997;-84
2022/05/26 06:54:15;;;;;;;6.60;5.00;;;;;;;14.72;73.23;100243.02;105170;1287;22567;-83
2022/05/26 06:56:42;;;;;;;7.30;6.10;;;;;;;14.78;73.01;100246.60;104901;1288;25388;-82
2022/05/26 06:59:09;;;;;;;5.30;4.80;;;;;;;14.83;72.58;100244.48;104928;1288;22707;-82
2022/05/26 07:01:37;;;;;;;5.70;5.10;;;;;;;14.88;71.79;100239.22;104963;1288;22682;-82
2022/05/26 07:04:04;;;;;;;5.80;5.00;;;;;;;14.92;71.58;100232.89;104517;1290;25652;-83
2022/05/26 07:06:31;;;;;;;7.50;4.80;;;;;;;14.96;71.51;100225.70;104933;1288;25303;-84
2022/05/26 07:08:58;;;;;;;5.50;4.80;;;;;;;15.05;71.68;100225.23;104826;1288;22663;-85
2022/05/26 07:11:25;;;;;;;5.40;4.40;;;;;;;15.16;71.46;100229.19;104609;1291;23848;-86
2022/05/26 07:13:52;;;;;;;5.00;4.60;;;;;;;15.25;71.29;100223.23;104905;1290;24408;-86
2022/05/26 07:16:19;;;;;;;5.00;4.50;;;;;;;15.32;70.76;100227.77;105363;1284;22698;-84
2022/05/26 07:18:47;;;;;;;5.50;5.00;;;;;;;15.39;70.15;100227.77;105209;1287;23992;-85
2022/05/26 07:21:14;;;;;;;4.90;4.50;;;;;;;15.44;69.72;100226.17;105391;1284;26504;-84
2022/05/26 07:23:42;;;;;;;5.10;3.80;;;;;;;15.52;69.41;100228.93;105553;1287;22631;-84
2022/05/26 07:26:13;;;;;;;4.90;4.20;;;;;;;15.60;68.98;100226.89;106093;1286;22560;-86
2022/05/26 07:28:41;;;;;;;6.20;3.40;;;;;;;15.68;67.75;100227.55;106235;1284;22586;-83
2022/05/26 07:31:10;;;;;;;4.80;4.30;;;;;;;15.74;67.64;100227.34;105767;1284;22531;-83
2022/05/26 07:33:37;;;;;;;4.40;3.90;;;;;;;15.82;67.36;100224.23;106383;1284;23907;-84
2022/05/26 07:36:06;;;;;;;10.70;3.90;;;;;;;15.89;67.55;100223.82;106190;1286;22580;-84
2022/05/26 07:41:25;;;;;;;5.30;4.00;;;;;;;16.13;66.98;100227.48;106354;1284;25708;-85
2022/05/26 07:43:57;;;;;;;4.00;3.60;;;;;;;16.22;66.78;100223.80;106780;1285;22592;-83
2022/05/26 07:46:25;;;;;;;4.30;3.70;;;;;;;16.34;67.13;100222.47;106438;1284;22634;-85
2022/05/26 07:48:52;;;;;;;6.60;3.70;;;;;;;16.48;66.66;100213.99;105809;1284;23985;-86
2022/05/26 07:51:21;;;;;;;4.10;3.50;;;;;;;16.61;66.32;100220.25;105532;1284;25275;-86
2022/05/26 07:53:51;;;;;;;3.70;3.40;;;;;;;16.69;64.56;100213.75;105648;1284;22895;-86
2022/05/26 07:56:20;;;;;;;4.30;3.60;;;;;;;16.80;64.96;100213.87;105859;1284;24371;-84
2022/05/26 07:58:47;;;;;;;4.60;3.30;;;;;;;16.93;64.91;100219.98;105728;1284;25476;-86
2022/05/26 08:01:15;;;;;;;4.90;2.60;;;;;;;17.02;63.05;100211.45;105511;1284;22816;-83
2022/05/26 08:03:42;;;;;;;4.00;2.90;;;;;;;17.12;62.80;100212.16;105380;1287;24195;-85
2022/05/26 08:06:09;;;;;;;3.60;2.80;;;;;;;17.24;62.91;100211.34;105338;1287;25443;-85
2022/05/26 08:08:38;;;;;;;2.60;2.20;;;;;;;17.33;61.28;100216.50;104995;1287;25275;-86
2022/05/26 08:11:05;;;;;;;5.70;2.60;;;;;;;17.38;59.46;100200.46;105367;1284;25383;-87
2022/05/26 08:13:32;;;;;;;4.30;2.40;;;;;;;17.46;59.38;100206.90;105199;1293;22870;-86
2022/05/26 08:15:59;;;;;;;2.30;2.10;;;;;;;17.52;60.17;100203.27;105089;1288;22708;-86
2022/05/26 08:18:27;;;;;;;3.40;2.00;;;;;;;17.65;59.43;100204.89;104939;1291;26695;-87
2022/05/26 08:20:54;;;;;;;2.00;1.80;;;;;;;17.74;58.77;100198.46;104852;1290;24297;-86
2022/05/26 08:23:25;;;;;;;3.00;2.20;;;;;;;17.88;58.41;100209.80;104824;1290;24553;-86
2022/05/26 08:25:53;;;;;;;14.80;2.70;;;;;;;18.00;58.30;100198.27;104912;1288;22564;-85
2022/05/26 08:28:20;;;;;;;2.60;1.80;;;;;;;18.11;58.09;100207.96;104703;1290;24155;-85
2022/05/26 08:30:47;;;;;;;5.60;1.90;;;;;;;18.12;57.44;100196.86;104712;1290;22585;-85
2022/05/26 08:33:14;;;;;;;4.70;2.60;;;;;;;18.21;56.48;100197.21;105323;1287;22783;-86
2022/05/26 08:35:41;;;;;;;1.90;1.70;;;;;;;18.28;56.04;100203.32;105376;1287;22559;-87
2022/05/26 08:38:09;;;;;;;2.00;1.50;;;;;;;18.34;55.75;100202.86;105286;1287;25425;-85
2022/05/26 08:40:40;;;;;;;1.60;1.50;;;;;;;18.41;53.69;100204.89;105346;1284;23872;-84
2022/05/26 08:43:16;;;;;;;1.70;1.40;;;;;;;18.46;52.45;100203.94;105186;1287;24277;-86
2022/05/26 08:45:48;;;;;;;3.20;1.70;;;;;;;18.53;52.39;100201.85;105053;1287;23231;-83
2022/05/26 08:48:50;;;;;;;4.00;1.70;;;;;;;18.62;51.83;100209.65;105624;1284;23040;-86
2022/05/26 08:51:43;;;;;;;1.90;1.70;;;;;;;18.68;51.33;100206.88;105206;1285;24242;-84
2022/05/26 08:54:22;;;;;;;1.60;1.50;;;;;;;18.75;52.40;100204.61;107859;1284;22587;-84
2022/05/26 08:56:52;;;;;;;4.60;1.70;;;;;;;18.86;52.14;100197.84;106585;1287;22668;-84
2022/05/26 08:59:23;;;;;;;2.40;1.60;;;;;;;19.02;52.05;100204.79;107460;1284;26735;-84
2022/05/26 09:01:50;;;;;;;3.60;1.40;;;;;;;19.04;50.87;100202.16;105809;1290;22910;-84
2022/05/26 09:04:17;;;;;;;2.60;1.80;;;;;;;19.01;50.82;100195.73;105849;1290;22816;-84
2022/05/26 09:15:19;;;;;;;5.20;1.10;;;;;;;19.22;48.51;100194.79;106353;1293;22580;-85
2022/05/26 09:17:46;;;;;;;2.00;1.20;;;;;;;19.36;47.20;100197.13;106170;1291;22622;-83
2022/05/26 09:20:38;;;;;;;2.60;1.40;;;;;;;19.41;47.18;100204.38;107190;1293;22512;-86
2022/05/26 09:23:22;;;;;;;2.70;1.20;;;;;;;19.53;47.52;100195.05;104858;1294;22569;-87
2022/05/26 09:25:55;;;;;;;2.50;1.40;;;;;;;19.67;47.10;100192.42;104612;1284;22660;-85
2022/05/26 09:28:36;;;;;;;1.70;1.60;;;;;;;19.79;46.96;100198.95;105760;1284;22565;-86
2022/05/26 09:31:34;;;;;;;1.50;1.10;;;;;;;19.86;46.31;100191.98;105362;1284;24323;-85
2022/05/26 09:34:19;;;;;;;1.30;1.20;;;;;;;19.99;45.85;100196.66;105182;1284;26503;-85
2022/05/26 09:36:53;;;;;;;0.90;0.80;;;;;;;20.00;44.70;100197.70;105283;1284;23828;-87
2022/05/26 09:39:42;;;;;;;4.90;1.10;;;;;;;19.96;44.22;100196.81;105397;1284;24353;-86
2022/05/26 09:42:15;;;;;;;1.50;0.90;;;;;;;19.88;44.59;100193.29;105252;1284;24406;-86
2022/05/26 09:44:54;;;;;;;3.90;1.00;;;;;;;19.95;45.46;100196.37;105463;1284;25535;-88
2022/05/26 09:47:24;;;;;;;2.20;1.50;;;;;;;20.08;44.35;100196.41;105469;1284;22778;-87
2022/05/26 09:49:54;;;;;;;2.10;0.80;;;;;;;20.26;44.39;100194.43;105442;1284;22705;-85
2022/05/26 09:52:26;;;;;;;3.70;1.10;;;;;;;20.24;42.98;100195.78;105312;1284;26522;-85
2022/05/26 09:55:08;;;;;;;1.80;0.90;;;;;;;20.07;42.74;100197.52;104619;1291;23037;-85
2022/05/26 09:57:35;;;;;;;2.80;1.30;;;;;;;20.02;43.98;100189.02;104497;1296;22637;-85
2022/05/26 10:00:17;;;;;;;2.90;1.40;;;;;;;20.10;43.67;100186.33;104433;1296;22598;-86
2022/05/26 10:02:49;;;;;;;2.70;1.00;;;;;;;20.18;43.64;100195.20;104402;1296;25268;-85
2022/05/26 10:05:22;;;;;;;6.40;1.20;;;;;;;20.13;42.55;100185.23;103982;1297;24489;-86
2022/05/26 10:07:50;;;;;;;1.10;1.10;;;;;;;20.12;42.83;100181.73;104332;1297;23736;-81
2022/05/26 10:10:25;;;;;;;1.20;0.90;;;;;;;20.18;42.72;100180.88;104098;1300;22584;-84
2022/05/26 10:13:16;;;;;;;4.40;1.20;;;;;;;20.30;42.15;100180.08;104041;1297;24181;-85
2022/05/26 10:15:49;;;;;;;6.00;1.40;;;;;;;20.17;41.31;100179.13;104600;1287;22906;-86
2022/05/26 10:18:26;;;;;;;4.40;0.90;;;;;;;20.11;42.07;100196.83;104942;1287;22677;-85
2022/05/26 10:21:23;;;;;;;2.20;1.50;;;;;;;20.18;42.32;100194.31;104520;1293;24356;-86
2022/05/26 10:24:05;;;;;;;2.70;0.90;;;;;;;20.28;42.37;100187.17;104278;1294;25350;-85
2022/05/26 10:27:04;;;;;;;3.40;0.90;;;;;;;20.27;43.20;100186.30;104564;1294;22557;-85
2022/05/26 10:29:34;;;;;;;1.60;1.10;;;;;;;20.28;42.55;100181.98;105985;1294;22620;-87
2022/05/26 10:32:02;;;;;;;2.30;0.90;;;;;;;20.21;41.57;100190.39;106594;1300;22583;-85
2022/05/26 10:34:54;;;;;;;0.80;0.80;;;;;;;20.12;42.23;100186.77;105024;1299;24260;-83
2022/05/26 10:37:27;;;;;;;1.80;1.00;;;;;;;20.05;42.25;100187.98;104094;1300;22569;-85
2022/05/26 10:40:16;;;;;;;1.40;0.90;;;;;;;19.98;42.50;100188.70;104573;1297;22707;-84
2022/05/26 10:43:08;;;;;;;5.00;1.30;;;;;;;19.92;42.40;100197.58;105696;1294;23041;-85
2022/05/26 10:45:45;;;;;;;2.50;0.90;;;;;;;19.87;42.87;100186.23;104340;1296;24381;-86
2022/05/26 10:48:24;;;;;;;1.50;1.00;;;;;;;19.76;42.86;100183.34;104137;1293;451129;-86
2022/05/26 10:51:12;;;;;;;4.20;0.80;;;;;;;19.86;42.85;100191.48;105143;1284;26576;-87
2022/05/26 10:53:54;;;;;;;3.30;1.10;;;;;;;19.82;42.65;100183.24;105518;1284;23971;-86
2022/05/26 10:56:36;;;;;;;1.90;0.80;;;;;;;19.85;43.08;100180.42;105509;1284;22831;-89
2022/05/26 10:59:33;;;;;;;1.10;1.00;;;;;;;19.81;43.35;100186.36;105584;1284;24369;-85
2022/05/26 11:02:28;;;;;;;2.40;1.20;;;;;;;19.77;43.84;100187.96;106607;1284;22635;-85
2022/05/26 11:05:35;;;;;;;3.20;1.20;;;;;;;19.68;44.00;100189.84;106766;1284;22568;-85
2022/05/26 11:08:22;;;;;;;4.10;0.90;;;;;;;19.46;44.40;100193.41;107545;1284;22551;-84
2022/05/26 11:10:58;;;;;;;4.90;1.10;;;;;;;19.31;45.32;100194.70;107402;1284;22541;-85
2022/05/26 11:13:37;;;;;;;2.40;1.10;;;;;;;19.24;45.71;100199.46;107413;1284;22657;-85
2022/05/26 11:19:18;;;;;;;2.80;1.10;;;;;;;19.25;45.97;100192.10;108159;1283;22740;-86
2022/05/26 11:21:45;;;;;;;4.00;1.40;;;;;;;19.42;46.26;100188.41;108012;1284;22992;-84
2022/05/26 11:24:33;;;;;;;2.40;1.10;;;;;;;19.69;45.97;100190.67;105446;1309;545524;-85
2022/05/26 11:27:09;;;;;;;2.00;1.10;;;;;;;19.92;45.62;100189.18;108580;1277;22539;-84
2022/05/26 11:29:44;;;;;;;4.00;1.40;;;;;;;20.30;45.54;100184.02;108733;1276;22638;-85
2022/05/26 11:38:13;;;;;;;2.00;1.40;;;;;;;20.42;44.40;100177.31;107443;1273;202365;-86
2022/05/26 11:40:55;;;;;;;1.40;1.10;;;;;;;20.33;44.26;100187.27;106777;1273;22691;-84
2022/05/26 11:43:28;;;;;;;2.30;1.20;;;;;;;20.27;44.61;100176.85;106661;1273;22531;-86
2022/05/26 11:45:59;;;;;;;1.60;1.10;;;;;;;20.37;44.86;100183.65;106597;1273;22746;-86
2022/05/26 11:48:32;;;;;;;1.80;1.20;;;;;;;20.53;44.02;100177.27;108882;1273;24291;-86
2022/05/26 11:51:24;;;;;;;3.20;1.20;;;;;;;20.74;43.27;100151.24;108550;1273;22652;-84
2022/05/26 11:53:51;;;;;;;2.10;1.10;;;;;;;20.68;43.21;100167.88;108833;1273;22630;-84
2022/05/26 11:56:30;;;;;;;1.90;1.00;;;;;;;20.54;44.07;100162.72;107393;1280;22550;-85
2022/05/26 11:59:20;;;;;;;3.90;1.40;;;;;;;20.65;44.54;100159.61;106582;1286;22584;-83
2022/05/26 12:02:08;;;;;;;1.30;1.20;;;;;;;20.90;43.97;100159.17;105781;1286;26588;-85
2022/05/26 12:04:41;;;;;;;1.20;1.00;;;;;;;21.11;43.53;100154.77;106140;1286;24359;-83
2022/05/26 12:07:14;;;;;;;2.50;1.20;;;;;;;21.05;42.96;100146.69;106339;1286;22587;-84
2022/05/26 12:09:57;;;;;;;2.10;1.20;;;;;;;20.84;43.20;100174.86;106532;1286;22837;-85
2022/05/26 12:12:35;;;;;;;1.60;0.90;;;;;;;20.68;43.59;100162.13;106692;1285;22498;-86
2022/05/26 12:15:20;;;;;;;1.30;1.20;;;;;;;20.93;44.15;100152.39;107080;1279;23139;-85
2022/05/26 12:17:55;;;;;;;3.10;0.90;;;;;;;21.21;43.31;100153.84;107424;1273;24345;-83
2022/05/26 12:20:24;;;;;;;2.30;1.00;;;;;;;21.43;43.02;100153.48;107333;1273;22576;-85
2022/05/26 12:22:54;;;;;;;5.20;0.80;;;;;;;21.60;40.87;100139.45;107702;1273;24391;-85
2022/05/26 12:25:23;;;;;;;2.60;1.10;;;;;;;21.46;40.54;100136.46;107305;1273;22717;-88